INN weather

Innsbruck Airport
Innsbruck, Tyrol, Austria

Public forecast

Using degrees Celsius for public forecast. Weather courtesy of forecast.io.

METAR (pilot weather report)

Retrieved 2019/03/26 18:20 UTC (2 hours ago):

LOWI 261820Z VRB03KT 9999 FEW060 SCT075 05/M03 Q1027 NOSIG

TAF (pilot weather forecast)

Retrieved 2019/03/26 18:21 UTC (2 hours ago):

TAF LOWI 261715Z 2618/2718 05005KT 9999 FEW050 TX08/2714Z TN02/2706Z BECMG 2622/2624 SCT050 BKN070 TEMPO 2700/2707 4000 -SN BKN015